createdAt,value
2016-08-26T00:00:26.923Z,0.00
2016-08-26T00:01:27.274Z,0.00
2016-08-26T00:02:27.621Z,0.00
2016-08-26T00:03:29.174Z,0.00
2016-08-26T00:04:28.753Z,0.00
2016-08-26T00:05:29.385Z,0.00
2016-08-26T00:06:30.031Z,0.00
2016-08-26T00:07:30.253Z,0.00
2016-08-26T00:08:31.037Z,0.00
2016-08-26T00:09:31.387Z,0.00
2016-08-26T00:10:40.149Z,0.00
2016-08-26T00:11:32.244Z,0.00
2016-08-26T00:12:32.869Z,0.00
2016-08-26T00:13:33.217Z,0.00
2016-08-26T00:14:33.891Z,0.00
2016-08-26T00:15:34.210Z,0.00
2016-08-26T00:16:35.024Z,0.00
2016-08-26T00:17:35.207Z,0.00
2016-08-26T00:18:35.857Z,0.00
2016-08-26T00:19:36.502Z,0.00
2016-08-26T00:20:36.861Z,0.00
2016-08-26T00:21:37.202Z,0.00
2016-08-26T00:22:40.700Z,0.00
2016-08-26T00:23:38.343Z,0.00
2016-08-26T00:24:39.149Z,0.00
2016-08-26T00:25:39.201Z,0.00
2016-08-26T00:26:39.864Z,0.00
2016-08-26T00:27:40.210Z,0.00
2016-08-26T00:28:40.748Z,0.00
2016-08-26T00:29:41.379Z,0.00
2016-08-26T00:30:41.552Z,0.00
2016-08-26T00:31:42.342Z,0.00
2016-08-26T00:32:42.711Z,0.00
2016-08-26T00:33:43.337Z,0.00
2016-08-26T00:34:43.994Z,0.00
2016-08-26T00:35:44.354Z,0.00
2016-08-26T00:36:44.703Z,0.00
2016-08-26T00:37:45.030Z,0.00
2016-08-26T00:38:46.574Z,0.00
2016-08-26T00:39:46.061Z,0.00
2016-08-26T00:40:46.820Z,0.00
2016-08-26T00:41:47.315Z,0.00
2016-08-26T00:42:47.969Z,0.00
2016-08-26T00:43:48.015Z,0.00
2016-08-26T00:44:48.676Z,0.00
2016-08-26T00:45:49.323Z,0.00
2016-08-26T00:46:49.832Z,0.00
2016-08-26T00:47:50.160Z,0.00
2016-08-26T00:48:50.830Z,0.00
2016-08-26T00:49:51.146Z,0.00
2016-08-26T00:50:51.705Z,0.00
2016-08-26T00:51:52.461Z,0.00
2016-08-26T00:52:52.641Z,0.00
2016-08-26T00:53:53.310Z,0.00
2016-08-26T00:54:53.656Z,0.00
2016-08-26T00:55:54.439Z,0.00
2016-08-26T00:56:54.785Z,0.00
2016-08-26T00:57:55.005Z,0.00
2016-08-26T00:58:55.628Z,0.00
2016-08-26T00:59:56.007Z,0.00
2016-08-26T01:00:56.783Z,0.00
2016-08-26T01:01:57.300Z,0.00
2016-08-26T01:02:57.536Z,0.00
2016-08-26T01:03:58.168Z,0.00
2016-08-26T01:04:58.786Z,0.00
2016-08-26T01:05:59.439Z,0.00
2016-08-26T01:06:59.789Z,0.00
2016-08-26T01:08:00.138Z,0.00
2016-08-26T01:09:00.633Z,0.00
2016-08-26T01:10:01.285Z,0.00
2016-08-26T01:11:01.627Z,0.00
2016-08-26T01:12:02.128Z,0.00
2016-08-26T01:13:02.939Z,0.00
2016-08-26T01:14:03.283Z,0.00
2016-08-26T01:15:03.656Z,0.00
2016-08-26T01:16:04.277Z,0.00
2016-08-26T01:17:04.914Z,0.00
2016-08-26T01:18:05.263Z,0.00
2016-08-26T01:19:05.909Z,0.00
2016-08-26T01:20:06.258Z,0.00
2016-08-26T01:21:06.754Z,0.00
2016-08-26T01:22:06.982Z,0.00
2016-08-26T01:23:07.447Z,0.00
2016-08-26T01:24:08.424Z,0.00
2016-08-26T01:25:08.893Z,0.00
2016-08-26T01:26:09.238Z,0.00
2016-08-26T01:27:09.587Z,0.00
2016-08-26T01:28:09.965Z,0.00
2016-08-26T01:29:10.735Z,0.00
2016-08-26T01:30:11.101Z,0.00
2016-08-26T01:31:11.726Z,0.00
2016-08-26T01:32:12.241Z,0.00
2016-08-26T01:33:12.630Z,0.00
2016-08-26T01:34:13.231Z,0.00
2016-08-26T01:35:13.731Z,0.00
2016-08-26T01:36:14.095Z,0.00
2016-08-26T01:37:14.586Z,0.00
2016-08-26T01:38:15.233Z,0.00
2016-08-26T01:39:15.725Z,0.00
2016-08-26T01:40:16.220Z,0.00
2016-08-26T01:41:16.449Z,0.00
2016-08-26T01:42:17.411Z,0.00
2016-08-26T01:43:17.613Z,0.00
2016-08-26T01:44:18.070Z,0.00
2016-08-26T01:45:18.734Z,0.00
2016-08-26T01:46:19.208Z,0.00
2016-08-26T01:47:19.421Z,0.00
2016-08-26T01:48:20.360Z,0.00
2016-08-26T01:49:20.427Z,0.00
2016-08-26T01:50:21.204Z,0.00
2016-08-26T01:51:21.707Z,0.00
2016-08-26T01:52:22.055Z,0.00
2016-08-26T01:53:22.884Z,0.00
2016-08-26T01:54:23.072Z,0.00
2016-08-26T01:55:23.542Z,0.00
2016-08-26T01:56:26.284Z,0.00
2016-08-26T01:57:24.702Z,0.00
2016-08-26T01:58:25.084Z,0.00
2016-08-26T01:59:25.710Z,0.00
2016-08-26T02:00:25.900Z,0.00
2016-08-26T02:01:26.679Z,0.00
2016-08-26T02:02:27.184Z,0.00
2016-08-26T02:03:27.686Z,0.00
2016-08-26T02:04:28.318Z,0.00
2016-08-26T02:05:28.662Z,0.00
2016-08-26T02:06:28.873Z,0.00
2016-08-26T02:07:29.671Z,0.00
2016-08-26T02:08:30.329Z,0.00
2016-08-26T02:09:30.954Z,0.00
2016-08-26T02:10:31.153Z,0.00
2016-08-26T02:11:31.499Z,0.00
2016-08-26T02:12:32.476Z,0.00
2016-08-26T02:13:32.527Z,0.00
2016-08-26T02:14:34.807Z,0.00
2016-08-26T02:15:33.671Z,0.00
2016-08-26T02:16:34.315Z,0.00
2016-08-26T02:17:34.501Z,0.00
2016-08-26T02:18:35.158Z,0.00
2016-08-26T02:19:35.642Z,0.00
2016-08-26T02:20:35.987Z,0.00
2016-08-26T02:21:36.635Z,0.00
2016-08-26T02:22:36.995Z,0.00
2016-08-26T02:23:37.505Z,0.00
2016-08-26T02:24:37.999Z,0.00
2016-08-26T02:25:38.478Z,0.00
2016-08-26T02:26:39.172Z,0.00
2016-08-26T02:27:39.623Z,0.00
2016-08-26T02:28:39.824Z,0.00
2016-08-26T02:29:40.475Z,0.00
2016-08-26T02:30:40.822Z,0.00
2016-08-26T02:31:41.804Z,0.00
2016-08-26T02:32:42.121Z,0.00
2016-08-26T02:33:42.620Z,0.00
2016-08-26T02:34:46.124Z,0.00
2016-08-26T02:35:43.342Z,0.00
2016-08-26T02:36:44.127Z,0.00
2016-08-26T02:37:44.476Z,0.00
2016-08-26T02:38:45.414Z,0.00
2016-08-26T02:39:45.610Z,0.00
2016-08-26T02:40:45.848Z,0.00
2016-08-26T02:41:46.321Z,0.00
2016-08-26T02:42:47.258Z,0.00
2016-08-26T02:43:47.770Z,0.00
2016-08-26T02:44:48.703Z,0.00
2016-08-26T02:45:48.619Z,0.00
2016-08-26T02:46:48.974Z,0.00
2016-08-26T02:47:49.449Z,0.00
2016-08-26T02:48:50.115Z,0.00
2016-08-26T02:49:50.761Z,0.00
2016-08-26T02:50:50.951Z,0.00
2016-08-26T02:51:51.302Z,0.00
2016-08-26T02:52:52.106Z,0.00
2016-08-26T02:53:52.621Z,0.00
2016-08-26T02:54:53.112Z,0.00
2016-08-26T02:55:53.608Z,0.00
2016-08-26T02:56:53.952Z,0.00
2016-08-26T02:57:54.631Z,0.00
2016-08-26T02:58:54.843Z,0.00
2016-08-26T02:59:55.458Z,0.00
2016-08-26T03:00:56.277Z,0.00
2016-08-26T03:01:56.763Z,0.00
2016-08-26T03:02:57.114Z,0.00
2016-08-26T03:03:57.444Z,0.00
2016-08-26T03:04:57.960Z,0.00
2016-08-26T03:05:58.333Z,0.00
2016-08-26T03:06:59.100Z,0.00
2016-08-26T03:07:59.431Z,0.00
2016-08-26T03:08:59.929Z,0.00
2016-08-26T03:10:00.424Z,0.00
2016-08-26T03:11:01.098Z,0.00
2016-08-26T03:12:01.722Z,0.00
2016-08-26T03:13:02.074Z,0.00
2016-08-26T03:14:02.441Z,0.00
2016-08-26T03:15:02.913Z,0.00
2016-08-26T03:16:03.567Z,0.00
2016-08-26T03:17:04.059Z,0.00
2016-08-26T03:18:04.879Z,0.00
2016-08-26T03:19:04.902Z,0.00
2016-08-26T03:20:05.402Z,0.00
2016-08-26T03:21:06.071Z,0.00
2016-08-26T03:22:06.556Z,0.00
2016-08-26T03:23:07.071Z,0.00
2016-08-26T03:24:07.551Z,0.00
2016-08-26T03:25:07.902Z,0.00
2016-08-26T03:26:08.701Z,0.00
2016-08-26T03:27:08.907Z,0.00
2016-08-26T03:28:09.443Z,0.00
2016-08-26T03:29:09.925Z,0.00
2016-08-26T03:30:10.728Z,0.00
2016-08-26T03:31:11.207Z,0.00
2016-08-26T03:32:11.421Z,0.00
2016-08-26T03:33:11.898Z,0.00
2016-08-26T03:34:12.426Z,0.00
2016-08-26T03:35:12.893Z,0.00
2016-08-26T03:36:13.540Z,0.00
2016-08-26T03:37:13.762Z,0.00
2016-08-26T03:38:14.540Z,0.00
2016-08-26T03:39:14.743Z,0.00
2016-08-26T03:40:15.564Z,0.00
2016-08-26T03:41:15.884Z,0.00
2016-08-26T03:42:16.401Z,0.00
2016-08-26T03:43:17.214Z,0.00
2016-08-26T03:44:17.671Z,0.00
2016-08-26T03:45:18.021Z,0.00
2016-08-26T03:46:18.519Z,0.00
2016-08-26T03:47:19.035Z,0.00
2016-08-26T03:48:19.818Z,0.00
2016-08-26T03:49:20.162Z,0.00
2016-08-26T03:50:20.364Z,0.00
2016-08-26T03:51:21.004Z,0.00
2016-08-26T03:52:21.357Z,0.00
2016-08-26T03:53:21.859Z,0.00
2016-08-26T03:54:22.501Z,0.00
2016-08-26T03:55:22.845Z,0.00
2016-08-26T03:56:23.530Z,0.00
2016-08-26T03:57:23.844Z,0.00
2016-08-26T03:58:24.639Z,0.00
2016-08-26T03:59:25.436Z,0.00
2016-08-26T04:00:25.348Z,0.00
2016-08-26T04:01:25.999Z,0.00
2016-08-26T04:02:26.331Z,0.00
2016-08-26T04:03:27.289Z,0.00
2016-08-26T04:04:27.339Z,0.00
2016-08-26T04:05:27.987Z,0.00
2016-08-26T04:06:28.480Z,0.00
2016-08-26T04:07:29.277Z,0.00
2016-08-26T04:08:29.477Z,0.00
2016-08-26T04:09:30.120Z,0.00
2016-08-26T04:10:30.640Z,0.00
2016-08-26T04:11:30.963Z,0.00
2016-08-26T04:12:31.466Z,0.00
2016-08-26T04:13:31.812Z,0.00
2016-08-26T04:14:32.308Z,0.00
2016-08-26T04:15:32.998Z,0.00
2016-08-26T04:16:33.641Z,0.00
2016-08-26T04:17:33.950Z,0.00
2016-08-26T04:18:34.293Z,0.00
2016-08-26T04:19:35.002Z,0.00
2016-08-26T04:20:36.358Z,0.00
2016-08-26T04:21:36.101Z,0.00
2016-08-26T04:22:36.283Z,0.00
2016-08-26T04:23:36.932Z,0.00
2016-08-26T04:24:37.280Z,0.00
2016-08-26T04:25:37.947Z,0.00
2016-08-26T04:26:38.316Z,0.00
2016-08-26T04:27:38.779Z,0.00
2016-08-26T04:28:39.289Z,0.00
2016-08-26T04:29:40.120Z,0.00
2016-08-26T04:30:40.281Z,0.00
2016-08-26T04:31:40.926Z,0.00
2016-08-26T04:32:41.433Z,0.00
2016-08-26T04:33:41.927Z,0.00
2016-08-26T04:34:42.410Z,0.00
2016-08-26T04:35:43.092Z,0.00
2016-08-26T04:36:43.404Z,0.00
2016-08-26T04:37:43.923Z,0.00
2016-08-26T04:38:44.253Z,0.00
2016-08-26T04:39:44.782Z,1.00
2016-08-26T04:40:45.400Z,1.00
2016-08-26T04:41:45.911Z,1.00
2016-08-26T04:42:46.262Z,1.00
2016-08-26T04:43:46.753Z,1.00
2016-08-26T04:44:47.100Z,1.00
2016-08-26T04:45:47.758Z,1.00
2016-08-26T04:46:48.544Z,1.00
2016-08-26T04:47:48.741Z,2.00
2016-08-26T04:48:49.390Z,2.00
2016-08-26T04:49:49.747Z,2.00
2016-08-26T04:50:50.234Z,2.00
2016-08-26T04:51:50.757Z,2.00
2016-08-26T04:52:51.400Z,2.00
2016-08-26T04:53:51.897Z,2.00
2016-08-26T04:54:52.112Z,2.00
2016-08-26T04:55:53.029Z,2.00
2016-08-26T04:56:53.222Z,2.00
2016-08-26T04:57:53.871Z,2.00
2016-08-26T04:58:54.099Z,2.00
2016-08-26T04:59:54.719Z,2.00
2016-08-26T05:00:55.091Z,2.00
2016-08-26T05:01:55.867Z,3.00
2016-08-26T05:02:56.514Z,3.00
2016-08-26T05:03:56.871Z,3.00
2016-08-26T05:04:57.372Z,3.00
2016-08-26T05:05:58.011Z,3.00
2016-08-26T05:06:58.542Z,3.00
2016-08-26T05:07:58.698Z,3.00
2016-08-26T05:08:59.350Z,3.00
2016-08-26T05:09:59.695Z,3.00
2016-08-26T05:11:00.203Z,3.00
2016-08-26T05:12:00.703Z,3.00
2016-08-26T05:13:01.495Z,3.00
2016-08-26T05:14:01.854Z,3.00
2016-08-26T05:15:02.358Z,3.00
2016-08-26T05:16:02.839Z,3.00
2016-08-26T05:17:03.358Z,3.00
2016-08-26T05:18:04.144Z,4.00
2016-08-26T05:19:04.054Z,4.00
2016-08-26T05:20:05.043Z,4.00
2016-08-26T05:21:05.492Z,4.00
2016-08-26T05:22:05.860Z,4.00
2016-08-26T05:23:06.190Z,4.00
2016-08-26T05:24:06.699Z,4.00
2016-08-26T05:25:07.348Z,4.00
2016-08-26T05:26:08.133Z,4.00
2016-08-26T05:27:08.499Z,4.00
2016-08-26T05:28:09.287Z,4.00
2016-08-26T05:29:09.047Z,5.00
2016-08-26T05:30:10.125Z,5.00
2016-08-26T05:31:10.322Z,5.00
2016-08-26T05:32:11.006Z,5.00
2016-08-26T05:33:11.189Z,5.00
2016-08-26T05:34:11.667Z,5.00
2016-08-26T05:35:12.330Z,5.00
2016-08-26T05:36:12.831Z,5.00
2016-08-26T05:37:13.339Z,5.00
2016-08-26T05:38:13.659Z,5.00
2016-08-26T05:39:14.155Z,5.00
2016-08-26T05:40:14.676Z,5.00
2016-08-26T05:41:15.168Z,5.00
2016-08-26T05:42:15.662Z,5.00
2016-08-26T05:43:16.010Z,10.00
2016-08-26T05:44:16.649Z,16.00
2016-08-26T05:45:17.595Z,18.00
2016-08-26T05:46:17.843Z,18.00
2016-08-26T05:47:18.018Z,18.00
2016-08-26T05:48:19.093Z,19.00
2016-08-26T05:49:19.177Z,19.00
2016-08-26T05:50:20.088Z,19.00
2016-08-26T05:51:20.438Z,20.00
2016-08-26T05:52:20.974Z,20.00
2016-08-26T05:53:21.289Z,21.00
2016-08-26T05:54:21.941Z,21.00
2016-08-26T05:55:22.149Z,21.00
2016-08-26T05:56:24.313Z,22.00
2016-08-26T05:57:22.982Z,22.00
2016-08-26T05:58:24.094Z,22.00
2016-08-26T05:59:24.125Z,23.00
2016-08-26T06:00:25.068Z,23.00
2016-08-26T06:01:25.267Z,23.00
2016-08-26T06:02:25.470Z,24.00
2016-08-26T06:03:26.123Z,24.00
2016-08-26T06:04:26.631Z,24.00
2016-08-26T06:05:27.258Z,25.00
2016-08-26T06:06:27.785Z,25.00
2016-08-26T06:07:28.256Z,26.00
2016-08-26T06:08:28.607Z,26.00
2016-08-26T06:09:29.438Z,26.00
2016-08-26T06:10:29.629Z,27.00
2016-08-26T06:11:30.281Z,27.00
2016-08-26T06:12:30.611Z,27.00
2016-08-26T06:13:31.106Z,28.00
2016-08-26T06:14:31.607Z,28.00
2016-08-26T06:15:31.933Z,28.00
2016-08-26T06:16:32.580Z,29.00
2016-08-26T06:17:33.129Z,29.00
2016-08-26T06:18:33.729Z,29.00
2016-08-26T06:19:34.367Z,30.00
2016-08-26T06:20:34.732Z,30.00
2016-08-26T06:21:34.965Z,30.00
2016-08-26T06:22:35.562Z,31.00
2016-08-26T06:23:36.219Z,31.00
2016-08-26T06:24:36.579Z,32.00
2016-08-26T06:25:37.207Z,32.00
2016-08-26T06:26:37.569Z,32.00
2016-08-26T06:27:38.063Z,32.00
2016-08-26T06:28:38.418Z,33.00
2016-08-26T06:29:39.359Z,33.00
2016-08-26T06:30:39.714Z,33.00
2016-08-26T06:31:40.088Z,33.00
2016-08-26T06:32:40.705Z,34.00
2016-08-26T06:33:41.353Z,34.00
2016-08-26T06:34:41.555Z,34.00
2016-08-26T06:35:42.222Z,35.00
2016-08-26T06:36:42.717Z,35.00
2016-08-26T06:37:43.360Z,35.00
2016-08-26T06:38:43.572Z,36.00
2016-08-26T06:39:44.243Z,36.00
2016-08-26T06:40:45.890Z,37.00
2016-08-26T06:41:45.082Z,37.00
2016-08-26T06:42:45.560Z,38.00
2016-08-26T06:43:46.044Z,38.00
2016-08-26T06:44:46.403Z,39.00
2016-08-26T06:45:46.929Z,39.00
2016-08-26T06:46:47.549Z,39.00
2016-08-26T06:47:48.176Z,40.00
2016-08-26T06:48:48.673Z,40.00
2016-08-26T06:49:49.173Z,40.00
2016-08-26T06:50:49.693Z,41.00
2016-08-26T06:51:49.881Z,41.00
2016-08-26T06:52:50.520Z,42.00
2016-08-26T06:53:51.167Z,42.00
2016-08-26T06:54:51.564Z,42.00
2016-08-26T06:55:52.036Z,43.00
2016-08-26T06:56:52.510Z,43.00
2016-08-26T06:57:53.006Z,44.00
2016-08-26T06:58:53.506Z,44.00
2016-08-26T06:59:54.465Z,45.00
2016-08-26T07:00:54.651Z,45.00
2016-08-26T07:01:55.000Z,45.00
2016-08-26T07:02:55.494Z,46.00
2016-08-26T07:03:56.152Z,46.00
2016-08-26T07:04:56.506Z,46.00
2016-08-26T07:05:57.149Z,47.00
2016-08-26T07:06:57.653Z,47.00
2016-08-26T07:07:57.851Z,47.00
2016-08-26T07:08:58.505Z,48.00
2016-08-26T07:09:59.148Z,48.00
2016-08-26T07:10:59.800Z,49.00
2016-08-26T07:11:59.869Z,49.00
2016-08-26T07:13:00.942Z,49.00
2016-08-26T07:14:00.994Z,50.00
2016-08-26T07:15:01.823Z,50.00
2016-08-26T07:16:02.140Z,51.00
2016-08-26T07:17:02.361Z,51.00
2016-08-26T07:18:02.987Z,52.00
2016-08-26T07:19:03.525Z,52.00
2016-08-26T07:20:04.163Z,53.00
2016-08-26T07:21:04.664Z,53.00
2016-08-26T07:22:04.978Z,53.00
2016-08-26T07:23:05.637Z,54.00
2016-08-26T07:24:06.130Z,54.00
2016-08-26T07:25:06.647Z,54.00
2016-08-26T07:26:07.130Z,55.00
2016-08-26T07:27:07.632Z,55.00
2016-08-26T07:28:08.004Z,56.00
2016-08-26T07:29:08.925Z,56.00
2016-08-26T07:30:09.282Z,57.00
2016-08-26T07:31:09.469Z,57.00
2016-08-26T07:32:10.139Z,57.00
2016-08-26T07:33:10.612Z,58.00
2016-08-26T07:34:11.121Z,58.00
2016-08-26T07:35:11.345Z,59.00
2016-08-26T07:36:11.965Z,59.00
2016-08-26T07:37:12.312Z,60.00
2016-08-26T07:38:13.255Z,60.00
2016-08-26T07:39:13.615Z,60.00
2016-08-26T07:40:14.108Z,61.00
2016-08-26T07:41:14.460Z,61.00
2016-08-26T07:42:15.112Z,61.00
2016-08-26T07:43:15.626Z,62.00
2016-08-26T07:44:16.311Z,62.00
2016-08-26T07:45:16.613Z,62.00
2016-08-26T07:46:18.938Z,63.00
2016-08-26T07:47:17.606Z,63.00
2016-08-26T07:48:18.408Z,63.00
2016-08-26T07:49:18.469Z,64.00
2016-08-26T07:50:18.984Z,64.00
2016-08-26T07:51:19.465Z,65.00
2016-08-26T07:52:20.100Z,65.00
2016-08-26T07:53:20.750Z,66.00
2016-08-26T07:54:20.983Z,66.00
2016-08-26T07:55:21.446Z,67.00
2016-08-26T07:56:22.125Z,67.00
2016-08-26T07:57:22.593Z,68.00
2016-08-26T07:58:22.793Z,68.00
2016-08-26T07:59:23.634Z,68.00
2016-08-26T08:00:24.086Z,69.00
2016-08-26T08:01:24.455Z,69.00
2016-08-26T08:02:25.079Z,70.00
2016-08-26T08:03:25.578Z,70.00
2016-08-26T08:04:25.803Z,70.00
2016-08-26T08:05:26.295Z,71.00
2016-08-26T08:06:26.770Z,71.00
2016-08-26T08:07:27.581Z,71.00
2016-08-26T08:08:27.762Z,72.00
2016-08-26T08:09:28.572Z,72.00
2016-08-26T08:10:28.930Z,72.00
2016-08-26T08:11:29.562Z,73.00
2016-08-26T08:12:30.060Z,73.00
2016-08-26T08:13:30.725Z,73.00
2016-08-26T08:14:31.080Z,73.00
2016-08-26T08:15:31.295Z,74.00
2016-08-26T08:16:31.902Z,75.00
2016-08-26T08:17:32.591Z,75.00
2016-08-26T08:18:32.904Z,76.00
2016-08-26T08:19:33.404Z,76.00
2016-08-26T08:20:33.899Z,77.00
2016-08-26T08:21:34.574Z,77.00
2016-08-26T08:22:35.195Z,77.00
2016-08-26T08:23:35.282Z,78.00
2016-08-26T08:24:36.041Z,78.00
2016-08-26T08:25:36.743Z,79.00
2016-08-26T08:26:36.888Z,79.00
2016-08-26T08:27:37.533Z,80.00
2016-08-26T08:28:38.034Z,80.00
2016-08-26T08:29:38.575Z,80.00
2016-08-26T08:30:39.037Z,81.00
2016-08-26T08:31:39.231Z,81.00
2016-08-26T08:32:39.895Z,81.00
2016-08-26T08:33:40.383Z,82.00
2016-08-26T08:34:41.054Z,82.00
2016-08-26T08:35:41.216Z,82.00
2016-08-26T08:36:42.023Z,83.00
2016-08-26T08:37:42.365Z,83.00
2016-08-26T08:38:43.187Z,83.00
2016-08-26T08:39:43.363Z,83.00
2016-08-26T08:40:44.006Z,83.00
2016-08-26T08:41:44.510Z,84.00
2016-08-26T08:42:45.152Z,84.00
2016-08-26T08:43:45.954Z,85.00
2016-08-26T08:44:46.002Z,85.00
2016-08-26T08:45:46.359Z,85.00
2016-08-26T08:46:46.900Z,86.00
2016-08-26T08:47:47.536Z,86.00
2016-08-26T08:48:47.851Z,86.00
2016-08-26T08:49:48.206Z,87.00
2016-08-26T08:50:48.842Z,87.00
2016-08-26T08:51:49.491Z,87.00
2016-08-26T08:52:49.848Z,88.00
2016-08-26T08:53:50.347Z,88.00
2016-08-26T08:54:50.847Z,88.00
2016-08-26T08:55:51.344Z,89.00
2016-08-26T08:56:51.841Z,89.00
2016-08-26T08:57:52.509Z,89.00
2016-08-26T08:58:52.992Z,90.00
2016-08-26T08:59:53.346Z,90.00
2016-08-26T09:00:53.684Z,91.00
2016-08-26T09:01:54.348Z,91.00
2016-08-26T09:02:55.133Z,91.00
2016-08-26T09:03:56.388Z,91.00
2016-08-26T09:04:55.835Z,92.00
2016-08-26T09:05:56.334Z,92.00
2016-08-26T09:06:56.832Z,92.00
2016-08-26T09:07:57.479Z,93.00
2016-08-26T09:08:57.844Z,93.00
2016-08-26T09:09:58.349Z,94.00
2016-08-26T09:10:59.125Z,94.00
2016-08-26T09:11:59.476Z,95.00
2016-08-26T09:13:00.122Z,95.00
2016-08-26T09:14:00.764Z,95.00
2016-08-26T09:15:00.966Z,95.00
2016-08-26T09:16:01.316Z,95.00
2016-08-26T09:17:01.813Z,95.00
2016-08-26T09:18:02.198Z,96.00
2016-08-26T09:19:02.811Z,96.00
2016-08-26T09:20:03.481Z,95.00
2016-08-26T09:21:03.810Z,96.00
2016-08-26T09:22:04.317Z,96.00
2016-08-26T09:23:05.100Z,96.00
2016-08-26T09:24:05.361Z,96.00
2016-08-26T09:25:05.951Z,97.00
2016-08-26T09:26:06.302Z,97.00
2016-08-26T09:27:06.806Z,98.00
2016-08-26T09:28:07.617Z,99.00
2016-08-26T09:29:07.800Z,99.00
2016-08-26T09:30:08.298Z,98.00
2016-08-26T09:31:08.794Z,98.00
2016-08-26T09:32:09.324Z,98.00
2016-08-26T09:33:09.826Z,99.00
2016-08-26T09:34:10.492Z,99.00
2016-08-26T09:35:10.943Z,99.00
2016-08-26T09:36:11.592Z,99.00
2016-08-26T09:37:11.826Z,99.00
2016-08-26T09:38:12.468Z,99.00
2016-08-26T09:39:12.687Z,99.00
2016-08-26T09:40:13.618Z,99.00
2016-08-26T09:41:13.941Z,99.00
2016-08-26T09:42:14.427Z,99.00
2016-08-26T09:43:15.073Z,99.00
2016-08-26T09:44:15.571Z,99.00
2016-08-26T09:45:15.629Z,99.00
2016-08-26T09:46:16.419Z,99.00
2016-08-26T09:47:16.926Z,99.00
2016-08-26T09:48:17.272Z,99.00
2016-08-26T09:49:17.938Z,99.00
2016-08-26T09:50:18.410Z,99.00
2016-08-26T09:51:18.615Z,99.00
2016-08-26T09:52:19.411Z,99.00
2016-08-26T09:53:19.921Z,99.00
2016-08-26T09:54:20.566Z,99.00
2016-08-26T09:55:20.901Z,99.00
2016-08-26T09:56:21.250Z,99.00
2016-08-26T09:57:21.740Z,99.00
2016-08-26T09:58:22.394Z,99.00
2016-08-26T09:59:22.738Z,99.00
2016-08-26T10:00:23.096Z,99.00
2016-08-26T10:01:23.903Z,99.00
2016-08-26T10:02:24.254Z,99.00
2016-08-26T10:03:25.041Z,99.00
2016-08-26T10:04:25.409Z,99.00
2016-08-26T10:05:26.033Z,99.00
2016-08-26T10:06:26.126Z,99.00
2016-08-26T10:07:26.881Z,99.00
2016-08-26T10:08:27.237Z,99.00
2016-08-26T10:09:27.755Z,99.00
2016-08-26T10:10:30.812Z,99.00
2016-08-26T10:11:29.076Z,99.00
2016-08-26T10:12:29.237Z,99.00
2016-08-26T10:13:29.594Z,99.00
2016-08-26T10:14:30.522Z,99.00
2016-08-26T10:15:30.733Z,99.00
2016-08-26T10:16:31.075Z,99.00
2016-08-26T10:17:31.866Z,99.00
2016-08-26T10:18:32.370Z,99.00
2016-08-26T10:19:32.710Z,99.00
2016-08-26T10:20:33.375Z,99.00
2016-08-26T10:21:33.711Z,99.00
2016-08-26T10:22:34.079Z,99.00
2016-08-26T10:23:34.710Z,99.00
2016-08-26T10:24:35.355Z,99.00
2016-08-26T10:25:35.702Z,99.00
2016-08-26T10:26:36.236Z,99.00
2016-08-26T10:27:36.696Z,99.00
2016-08-26T10:28:37.364Z,99.00
2016-08-26T10:29:37.993Z,99.00
2016-08-26T10:30:38.198Z,99.00
2016-08-26T10:31:38.695Z,99.00
2016-08-26T10:32:39.489Z,99.00
2016-08-26T10:33:39.891Z,99.00
2016-08-26T10:34:40.343Z,99.00
2016-08-26T10:35:40.859Z,99.00
2016-08-26T10:36:41.344Z,99.00
2016-08-26T10:37:41.984Z,99.00
2016-08-26T10:38:42.184Z,99.00
2016-08-26T10:39:42.858Z,99.00
2016-08-26T10:40:43.229Z,99.00
2016-08-26T10:41:43.988Z,99.00
2016-08-26T10:42:44.524Z,99.00
2016-08-26T10:43:44.999Z,99.00
2016-08-26T10:44:45.506Z,99.00
2016-08-26T10:45:45.683Z,99.00
2016-08-26T10:46:46.326Z,99.00
2016-08-26T10:47:46.523Z,99.00
2016-08-26T10:48:47.180Z,99.00
2016-08-26T10:49:48.118Z,99.00
2016-08-26T10:50:48.167Z,99.00
2016-08-26T10:51:48.689Z,99.00
2016-08-26T10:52:49.458Z,99.00
2016-08-26T10:53:49.506Z,99.00
2016-08-26T10:54:50.325Z,99.00
2016-08-26T10:55:50.952Z,99.00
2016-08-26T10:56:51.207Z,99.00
2016-08-26T10:57:51.798Z,99.00
2016-08-26T10:58:52.154Z,99.00
2016-08-26T10:59:52.796Z,99.00
2016-08-26T11:00:53.018Z,99.00
2016-08-26T11:01:53.511Z,99.00
2016-08-26T11:02:54.138Z,99.00
2016-08-26T11:03:54.810Z,99.00
2016-08-26T11:04:55.341Z,99.00
2016-08-26T11:05:55.650Z,99.00
2016-08-26T11:06:56.433Z,99.00
2016-08-26T11:07:56.783Z,99.00
2016-08-26T11:08:57.134Z,99.00
2016-08-26T11:09:57.770Z,99.00
2016-08-26T11:10:58.574Z,99.00
2016-08-26T11:11:58.624Z,99.00
2016-08-26T11:12:59.127Z,99.00
2016-08-26T11:13:59.472Z,99.00
2016-08-26T11:15:00.161Z,99.00
2016-08-26T11:16:00.923Z,99.00
2016-08-26T11:17:01.139Z,99.00
2016-08-26T11:18:01.937Z,99.00
2016-08-26T11:19:02.127Z,99.00
2016-08-26T11:20:02.620Z,99.00
2016-08-26T11:21:03.421Z,99.00
2016-08-26T11:22:03.773Z,99.00
2016-08-26T11:23:04.419Z,99.00
2016-08-26T11:24:04.783Z,99.00
2016-08-26T11:25:05.279Z,99.00
2016-08-26T11:26:05.616Z,99.00
2016-08-26T11:27:06.732Z,99.00
2016-08-26T11:28:06.763Z,99.00
2016-08-26T11:29:07.257Z,99.00
2016-08-26T11:30:07.457Z,99.00
2016-08-26T11:31:08.268Z,99.00
2016-08-26T11:32:08.599Z,99.00
2016-08-26T11:33:09.266Z,99.00
2016-08-26T11:34:09.613Z,99.00
2016-08-26T11:35:10.256Z,99.00
2016-08-26T11:36:10.604Z,99.00
2016-08-26T11:37:11.254Z,99.00
2016-08-26T11:38:11.759Z,99.00
2016-08-26T11:39:12.396Z,99.00
2016-08-26T11:40:12.778Z,99.00
2016-08-26T11:41:13.398Z,99.00
2016-08-26T11:42:13.595Z,99.00
2016-08-26T11:43:14.386Z,99.00
2016-08-26T11:44:14.455Z,99.00
2016-08-26T11:45:15.381Z,99.00
2016-08-26T11:46:15.735Z,99.00
2016-08-26T11:47:16.095Z,99.00
2016-08-26T11:48:16.729Z,99.00
2016-08-26T11:49:17.079Z,99.00
2016-08-26T11:50:17.591Z,99.00
2016-08-26T11:51:18.374Z,99.00
2016-08-26T11:52:18.579Z,99.00
2016-08-26T11:53:19.229Z,99.00
2016-08-26T11:54:19.754Z,99.00
2016-08-26T11:55:20.240Z,99.00
2016-08-26T11:56:20.889Z,99.00
2016-08-26T11:57:21.274Z,99.00
2016-08-26T11:58:21.628Z,99.00
2016-08-26T11:59:22.085Z,99.00
2016-08-26T12:00:22.444Z,99.00
2016-08-26T12:01:22.926Z,99.00
2016-08-26T12:02:23.571Z,99.00
2016-08-26T12:03:24.382Z,99.00
2016-08-26T12:04:24.593Z,99.00
2016-08-26T12:05:25.224Z,99.00
2016-08-26T12:06:25.567Z,99.00
2016-08-26T12:07:25.944Z,99.00
2016-08-26T12:08:26.715Z,99.00
2016-08-26T12:09:27.066Z,99.00
2016-08-26T12:10:27.713Z,99.00
2016-08-26T12:11:28.099Z,99.00
2016-08-26T12:12:28.566Z,99.00
2016-08-26T12:13:29.505Z,99.00
2016-08-26T12:14:29.553Z,99.00
2016-08-26T12:15:30.204Z,99.00
2016-08-26T12:16:30.699Z,99.00
2016-08-26T12:17:31.364Z,99.00
2016-08-26T12:18:31.612Z,99.00
2016-08-26T12:19:32.064Z,99.00
2016-08-26T12:20:32.684Z,99.00
2016-08-26T12:21:33.065Z,99.00
2016-08-26T12:22:33.681Z,99.00
2016-08-26T12:23:34.030Z,99.00
2016-08-26T12:24:34.550Z,99.00
2016-08-26T12:25:35.180Z,99.00
2016-08-26T12:26:35.839Z,99.00
2016-08-26T12:27:35.900Z,99.00
2016-08-26T12:28:36.560Z,99.00
2016-08-26T12:29:37.187Z,99.00
2016-08-26T12:30:37.387Z,99.00
2016-08-26T12:31:38.051Z,99.00
2016-08-26T12:32:38.675Z,99.00
2016-08-26T12:33:39.199Z,99.00
2016-08-26T12:34:39.524Z,99.00
2016-08-26T12:35:40.217Z,99.00
2016-08-26T12:36:40.701Z,99.00
2016-08-26T12:37:41.160Z,99.00
2016-08-26T12:38:41.678Z,99.00
2016-08-26T12:39:42.330Z,99.00
2016-08-26T12:40:42.515Z,99.00
2016-08-26T12:41:42.876Z,99.00
2016-08-26T12:42:43.359Z,99.00
2016-08-26T12:43:44.003Z,99.00
2016-08-26T12:44:44.519Z,99.00
2016-08-26T12:45:44.997Z,99.00
2016-08-26T12:46:45.372Z,99.00
2016-08-26T12:47:46.139Z,99.00
2016-08-26T12:48:46.782Z,99.00
2016-08-26T12:49:47.301Z,99.00
2016-08-26T12:50:47.654Z,99.00
2016-08-26T12:51:48.000Z,99.00
2016-08-26T12:52:48.477Z,99.00
2016-08-26T12:53:49.120Z,97.00
2016-08-26T12:54:49.329Z,99.00
2016-08-26T12:55:49.822Z,99.00
2016-08-26T12:56:50.950Z,99.00
2016-08-26T12:57:50.989Z,99.00
2016-08-26T12:58:51.932Z,96.00
2016-08-26T12:59:52.260Z,99.00
2016-08-26T13:00:52.626Z,99.00
2016-08-26T13:01:52.962Z,99.00
2016-08-26T13:02:53.603Z,99.00
2016-08-26T13:03:54.161Z,99.00
2016-08-26T13:04:54.603Z,98.00
2016-08-26T13:05:55.006Z,99.00
2016-08-26T13:06:55.306Z,99.00
2016-08-26T13:07:56.108Z,99.00
2016-08-26T13:08:56.772Z,99.00
2016-08-26T13:09:56.838Z,99.00